createdAt,value
2022-10-15T00:01:31.682Z,38.50
2022-10-15T00:06:30.151Z,38.00
2022-10-15T00:08:58.218Z,36.83
2022-10-15T00:11:28.387Z,51.22
2022-10-15T00:13:58.494Z,48.30
2022-10-15T00:16:29.569Z,59.60
2022-10-15T00:21:26.908Z,38.33
2022-10-15T00:23:55.088Z,38.28
2022-10-15T00:26:25.426Z,43.38
2022-10-15T00:28:55.564Z,42.20
2022-10-15T00:31:24.702Z,40.67
2022-10-15T00:33:55.841Z,43.00
2022-10-15T00:36:25.564Z,41.88
2022-10-15T00:38:54.471Z,55.50
2022-10-15T00:41:24.474Z,56.45
2022-10-15T00:43:54.174Z,52.15
2022-10-15T00:46:25.804Z,50.35
2022-10-15T00:48:58.761Z,47.38
2022-10-15T00:51:30.991Z,46.15
2022-10-15T00:53:59.085Z,38.55
2022-10-15T00:56:28.576Z,46.80
2022-10-15T00:58:57.483Z,49.38
2022-10-15T01:01:26.518Z,46.83
2022-10-15T01:03:56.982Z,43.47
2022-10-15T01:06:26.129Z,45.33
2022-10-15T01:08:54.333Z,45.67
2022-10-15T01:11:32.172Z,48.80
2022-10-15T01:14:05.046Z,50.05
2022-10-15T01:16:37.688Z,49.00
2022-10-15T01:19:11.567Z,52.85
2022-10-15T01:21:45.708Z,51.20
2022-10-15T01:24:38.316Z,54.03
2022-10-15T01:27:31.698Z,48.83
2022-10-15T01:30:20.642Z,52.42
2022-10-15T01:33:04.495Z,47.53
2022-10-15T01:35:38.867Z,48.63
2022-10-15T01:38:12.316Z,49.35
2022-10-15T01:40:46.084Z,51.90
2022-10-15T01:43:17.293Z,50.97
2022-10-15T01:45:49.118Z,49.97
2022-10-15T01:48:19.060Z,48.25
2022-10-15T01:50:49.864Z,50.67
2022-10-15T01:53:26.539Z,51.15
2022-10-15T01:55:56.059Z,51.05
2022-10-15T01:58:25.284Z,53.08
2022-10-15T02:00:55.980Z,47.65
2022-10-15T02:03:24.272Z,53.55
2022-10-15T02:05:56.677Z,51.63
2022-10-15T02:08:37.312Z,48.55
2022-10-15T02:11:08.420Z,48.63
2022-10-15T02:13:43.529Z,44.72
2022-10-15T02:16:15.711Z,49.17
2022-10-15T02:18:48.276Z,51.28
2022-10-15T02:21:19.144Z,47.03
2022-10-15T02:23:54.287Z,53.53
2022-10-15T02:26:25.597Z,47.78
2022-10-15T02:28:56.263Z,52.95
2022-10-15T02:31:26.659Z,48.35
2022-10-15T02:33:57.024Z,48.25
2022-10-15T02:36:25.712Z,49.33
2022-10-15T02:38:56.255Z,50.42
2022-10-15T02:41:24.528Z,57.05
2022-10-15T02:43:52.863Z,49.42
2022-10-15T02:46:21.244Z,48.80
2022-10-15T02:48:50.849Z,46.03
2022-10-15T02:51:19.283Z,51.90
2022-10-15T02:53:47.507Z,57.72
2022-10-15T02:56:16.080Z,52.90
2022-10-15T02:58:44.439Z,49.88
2022-10-15T03:01:12.642Z,51.70
2022-10-15T03:03:40.797Z,52.80
2022-10-15T03:06:10.460Z,50.47
2022-10-15T03:08:38.855Z,45.40
2022-10-15T03:11:06.982Z,49.00
2022-10-15T03:13:36.933Z,52.90
2022-10-15T03:16:05.875Z,45.35
2022-10-15T03:18:36.826Z,47.30
2022-10-15T03:21:08.158Z,48.47
2022-10-15T03:23:37.846Z,45.85
2022-10-15T03:26:06.254Z,47.10
2022-10-15T03:28:34.810Z,49.55
2022-10-15T03:31:02.921Z,48.97
2022-10-15T03:33:31.040Z,48.80
2022-10-15T03:35:59.415Z,46.92
2022-10-15T03:38:27.811Z,48.42
2022-10-15T03:40:57.281Z,50.35
2022-10-15T03:43:26.469Z,45.20
2022-10-15T03:45:54.827Z,47.97
2022-10-15T03:48:22.992Z,49.17
2022-10-15T03:50:51.319Z,46.97
2022-10-15T03:53:19.470Z,45.80
2022-10-15T03:55:47.641Z,50.53
2022-10-15T03:58:17.343Z,44.65
2022-10-15T04:00:46.465Z,47.22
2022-10-15T04:03:15.411Z,45.70
2022-10-15T04:05:43.834Z,45.67
2022-10-15T04:08:11.951Z,43.88
2022-10-15T04:10:40.300Z,48.70
2022-10-15T04:13:08.679Z,44.42
2022-10-15T04:15:40.265Z,43.50
2022-10-15T04:18:08.367Z,47.17
2022-10-15T04:20:36.741Z,50.03
2022-10-15T04:23:05.015Z,51.03
2022-10-15T04:25:33.065Z,46.00
2022-10-15T04:28:01.366Z,46.72
2022-10-15T04:30:29.524Z,45.35
2022-10-15T04:32:59.077Z,44.55
2022-10-15T04:35:27.576Z,39.22
2022-10-15T04:37:55.891Z,41.15
2022-10-15T04:40:24.390Z,44.88
2022-10-15T04:42:52.704Z,49.72
2022-10-15T04:45:21.080Z,45.55
2022-10-15T04:47:49.456Z,41.38
2022-10-15T04:50:19.091Z,42.65
2022-10-15T04:52:48.681Z,41.97
2022-10-15T04:55:16.972Z,39.65
2022-10-15T04:57:45.346Z,38.83
2022-10-15T05:00:14.906Z,41.88
2022-10-15T05:02:43.762Z,42.67
2022-10-15T05:05:12.015Z,42.95
2022-10-15T05:07:41.757Z,38.85
2022-10-15T05:10:10.107Z,38.95
2022-10-15T05:12:38.550Z,41.65
2022-10-15T05:15:07.754Z,38.90
2022-10-15T05:17:35.980Z,43.45
2022-10-15T05:20:04.827Z,42.97
2022-10-15T05:22:32.999Z,38.60
2022-10-15T05:25:02.699Z,38.80
2022-10-15T05:27:31.204Z,37.58
2022-10-15T05:29:59.401Z,38.88
2022-10-15T05:32:27.479Z,39.90
2022-10-15T05:34:55.968Z,35.42
2022-10-15T05:37:25.463Z,39.58
2022-10-15T05:39:54.120Z,38.60
2022-10-15T05:42:23.794Z,34.53
2022-10-15T05:44:51.966Z,36.63
2022-10-15T05:47:20.166Z,33.97
2022-10-15T05:49:48.671Z,32.72
2022-10-15T05:52:17.051Z,33.70
2022-10-15T05:54:45.293Z,33.85
2022-10-15T05:57:13.659Z,31.75
2022-10-15T05:59:43.188Z,33.50
2022-10-15T06:02:16.074Z,35.40
2022-10-15T06:04:44.575Z,37.80
2022-10-15T06:07:12.682Z,35.30
2022-10-15T06:09:40.905Z,38.42
2022-10-15T06:12:09.318Z,31.98
2022-10-15T06:14:37.410Z,33.78
2022-10-15T06:17:06.876Z,35.30
2022-10-15T06:19:35.475Z,32.10
2022-10-15T06:22:03.596Z,34.13
2022-10-15T06:24:31.646Z,36.08
2022-10-15T06:27:00.503Z,31.00
2022-10-15T06:29:28.926Z,33.58
2022-10-15T06:31:56.961Z,32.75
2022-10-15T06:34:26.720Z,29.67
2022-10-15T06:36:54.908Z,38.38
2022-10-15T06:39:23.062Z,33.22
2022-10-15T06:41:51.306Z,32.25
2022-10-15T06:44:19.469Z,32.63
2022-10-15T06:46:47.672Z,28.33
2022-10-15T06:49:16.021Z,31.50
2022-10-15T06:51:45.642Z,28.10
2022-10-15T06:54:13.841Z,32.55
2022-10-15T06:56:42.164Z,30.80
2022-10-15T06:59:10.264Z,34.15
2022-10-15T07:01:41.385Z,31.17
2022-10-15T07:04:10.761Z,34.03
2022-10-15T07:06:39.007Z,28.92
2022-10-15T07:09:08.461Z,32.60
2022-10-15T07:11:36.999Z,35.58
2022-10-15T07:14:05.099Z,25.50
2022-10-15T07:16:33.253Z,29.63
2022-10-15T07:19:01.667Z,36.03
2022-10-15T07:21:29.766Z,37.03
2022-10-15T07:23:59.451Z,31.70
2022-10-15T07:26:31.100Z,32.50
2022-10-15T07:31:27.271Z,28.77
2022-10-15T07:33:55.602Z,29.85
2022-10-15T07:36:23.910Z,27.63
2022-10-15T07:38:51.957Z,26.83
2022-10-15T07:41:20.421Z,23.73
2022-10-15T07:43:52.874Z,25.95
2022-10-15T07:46:21.345Z,24.85
2022-10-15T07:48:49.469Z,23.35
2022-10-15T07:53:50.785Z,20.35
2022-10-15T07:56:19.300Z,22.77
2022-10-15T07:58:51.873Z,25.58
2022-10-15T08:01:22.529Z,25.92
2022-10-15T08:03:50.628Z,25.05
2022-10-15T08:06:19.240Z,35.30
2022-10-15T08:08:47.834Z,73.95
2022-10-15T08:11:17.690Z,47.15
2022-10-15T08:13:48.216Z,34.47
2022-10-15T08:16:19.606Z,46.28
2022-10-15T08:18:49.312Z,23.55
2022-10-15T08:21:17.506Z,25.35
2022-10-15T08:23:45.982Z,25.38
2022-10-15T08:26:14.293Z,25.50
2022-10-15T08:28:42.735Z,23.17
2022-10-15T08:31:11.057Z,22.95
2022-10-15T08:33:39.467Z,22.98
2022-10-15T08:36:09.523Z,19.40
2022-10-15T08:38:37.678Z,19.15
2022-10-15T08:41:12.931Z,31.20
2022-10-15T08:43:42.431Z,24.65
2022-10-15T08:46:13.737Z,19.65
2022-10-15T08:48:45.259Z,20.00
2022-10-15T08:51:18.487Z,16.92
2022-10-15T08:53:49.659Z,19.63
2022-10-15T08:58:52.924Z,15.77
2022-10-15T09:01:27.220Z,13.25
2022-10-15T09:04:03.311Z,13.27
2022-10-15T09:06:35.847Z,15.27
2022-10-15T09:09:08.779Z,14.25
2022-10-15T09:11:43.606Z,13.88
2022-10-15T09:14:16.276Z,13.57
2022-10-15T09:16:47.638Z,15.70
2022-10-15T09:19:18.047Z,13.25
2022-10-15T09:21:49.121Z,12.30
2022-10-15T09:24:22.283Z,12.93
2022-10-15T09:27:02.370Z,14.55
2022-10-15T09:29:33.944Z,12.32
2022-10-15T09:32:10.964Z,12.38
2022-10-15T09:34:41.994Z,12.63
2022-10-15T09:39:48.679Z,14.23
2022-10-15T09:42:27.328Z,16.20
2022-10-15T09:44:56.305Z,10.50
2022-10-15T09:47:26.484Z,14.65
2022-10-15T09:49:54.754Z,11.45
2022-10-15T09:52:31.543Z,11.68
2022-10-15T09:55:05.733Z,12.02
2022-10-15T09:57:36.131Z,11.23
2022-10-15T10:00:08.704Z,12.32
2022-10-15T10:02:37.369Z,9.55
2022-10-15T10:05:21.426Z,8.73
2022-10-15T10:07:51.171Z,12.10
2022-10-15T10:10:29.585Z,9.07
2022-10-15T10:12:58.135Z,117.43
2022-10-15T10:15:33.181Z,78.05
2022-10-15T10:18:02.277Z,13.18
2022-10-15T10:20:31.056Z,11.43
2022-10-15T10:23:02.304Z,9.65
2022-10-15T10:25:33.740Z,10.27
2022-10-15T10:28:07.194Z,12.05
2022-10-15T10:30:37.624Z,9.40
2022-10-15T10:33:06.516Z,9.48
2022-10-15T10:35:38.132Z,7.20
2022-10-15T10:38:07.816Z,8.13
2022-10-15T10:40:37.239Z,12.40
2022-10-15T10:43:13.540Z,7.18
2022-10-15T10:45:53.964Z,10.02
2022-10-15T10:48:23.901Z,12.95
2022-10-15T10:51:06.123Z,9.70
2022-10-15T10:53:43.517Z,9.45
2022-10-15T10:56:13.702Z,7.82
2022-10-15T10:58:42.669Z,11.43
2022-10-15T11:01:13.877Z,8.93
2022-10-15T11:03:44.041Z,9.13
2022-10-15T11:06:39.772Z,8.13
2022-10-15T11:09:16.556Z,10.07
2022-10-15T11:11:54.341Z,9.57
2022-10-15T11:14:31.348Z,9.90
2022-10-15T11:17:03.577Z,12.30
2022-10-15T11:20:05.743Z,7.55
2022-10-15T11:22:43.471Z,10.77
2022-10-15T11:25:22.540Z,12.27
2022-10-15T11:28:08.547Z,11.00
2022-10-15T11:30:43.985Z,11.80
2022-10-15T11:33:23.009Z,10.40
2022-10-15T11:35:56.318Z,9.10
2022-10-15T11:38:30.463Z,14.68
2022-10-15T11:41:11.477Z,7.80
2022-10-15T11:43:52.747Z,9.00
2022-10-15T11:46:26.866Z,9.80
2022-10-15T11:49:05.648Z,8.07
2022-10-15T11:51:42.723Z,7.63
2022-10-15T11:54:18.984Z,8.65
2022-10-15T11:56:50.223Z,8.13
2022-10-15T11:59:28.541Z,8.55
2022-10-15T12:02:00.857Z,8.80
2022-10-15T12:04:34.439Z,10.40
2022-10-15T12:07:04.497Z,7.50
2022-10-15T12:09:36.694Z,10.40
2022-10-15T12:12:10.972Z,16.88
2022-10-15T12:14:43.492Z,8.60
2022-10-15T12:17:17.730Z,9.00
2022-10-15T12:19:50.146Z,10.73
2022-10-15T12:22:34.946Z,17.23
2022-10-15T12:25:03.319Z,19.00
2022-10-15T12:27:35.611Z,9.73
2022-10-15T12:30:26.909Z,9.77
2022-10-15T12:35:35.198Z,12.60
2022-10-15T12:38:20.278Z,10.68
2022-10-15T12:40:48.609Z,9.15
2022-10-15T12:43:21.464Z,11.18
2022-10-15T12:45:54.301Z,11.15
2022-10-15T12:48:31.815Z,7.40
2022-10-15T12:51:40.069Z,7.45
2022-10-15T12:54:33.802Z,8.35
2022-10-15T12:57:04.970Z,7.50
2022-10-15T13:05:26.823Z,10.70
2022-10-15T13:07:56.146Z,10.07
2022-10-15T13:10:28.173Z,6.47
2022-10-15T13:12:59.962Z,8.05
2022-10-15T13:15:30.046Z,10.48
2022-10-15T13:18:01.613Z,7.47
2022-10-15T13:20:36.084Z,9.88
2022-10-15T13:23:28.857Z,8.10
2022-10-15T13:26:18.718Z,8.40
2022-10-15T13:28:47.477Z,9.23
2022-10-15T13:31:22.604Z,9.55
2022-10-15T13:33:56.935Z,9.52
2022-10-15T13:36:27.139Z,7.25
2022-10-15T13:38:59.590Z,7.72
2022-10-15T13:41:30.154Z,8.13
2022-10-15T13:44:01.216Z,8.97
2022-10-15T13:46:32.128Z,11.48
2022-10-15T13:49:03.513Z,8.65
2022-10-15T13:51:41.100Z,9.60
2022-10-15T13:54:12.207Z,9.68
2022-10-15T13:56:47.884Z,11.88
2022-10-15T13:59:20.313Z,11.40
2022-10-15T14:01:49.956Z,12.88
2022-10-15T14:04:21.148Z,9.27
2022-10-15T14:07:02.041Z,8.98
2022-10-15T14:09:33.024Z,9.25
2022-10-15T14:12:03.127Z,10.43
2022-10-15T14:14:34.347Z,13.33
2022-10-15T14:17:04.713Z,9.50
2022-10-15T14:19:35.293Z,9.00
2022-10-15T14:22:03.949Z,11.70
2022-10-15T14:24:34.425Z,10.52
2022-10-15T14:27:06.009Z,7.85
2022-10-15T14:32:21.221Z,8.18
2022-10-15T14:34:51.214Z,8.23
2022-10-15T14:37:33.842Z,8.77
2022-10-15T14:40:15.967Z,10.90
2022-10-15T14:42:46.193Z,8.00
2022-10-15T14:45:20.295Z,8.13
2022-10-15T14:47:50.454Z,10.82
2022-10-15T14:50:20.734Z,9.82
2022-10-15T14:52:51.825Z,9.90
2022-10-15T14:55:33.224Z,8.77
2022-10-15T14:58:03.408Z,9.00
2022-10-15T15:00:34.144Z,14.35
2022-10-15T15:03:05.417Z,7.82
2022-10-15T15:05:45.788Z,20.75
2022-10-15T15:08:14.205Z,8.00
2022-10-15T15:10:42.673Z,7.28
2022-10-15T15:13:12.595Z,10.13
2022-10-15T15:15:41.453Z,28.60
2022-10-15T15:18:10.654Z,12.73
2022-10-15T15:20:41.523Z,11.93
2022-10-15T15:23:11.498Z,9.63
2022-10-15T15:25:41.088Z,8.10
2022-10-15T15:28:14.027Z,12.23
2022-10-15T15:30:43.839Z,10.77
2022-10-15T15:33:12.762Z,9.82
2022-10-15T15:35:50.843Z,8.20
2022-10-15T15:38:19.799Z,10.77
2022-10-15T15:40:48.243Z,12.52
2022-10-15T15:43:18.155Z,9.07
2022-10-15T15:45:47.803Z,11.00
2022-10-15T15:48:17.074Z,9.02
2022-10-15T15:50:47.632Z,8.20
2022-10-15T15:53:16.090Z,12.25
2022-10-15T15:55:44.331Z,8.50
2022-10-15T15:58:13.206Z,11.25
2022-10-15T16:00:41.306Z,10.60
2022-10-15T16:03:10.374Z,11.45
2022-10-15T16:05:40.874Z,9.82
2022-10-15T16:08:12.273Z,33.05
2022-10-15T16:10:40.455Z,11.98
2022-10-15T16:13:08.920Z,8.45
2022-10-15T16:15:37.018Z,11.90
2022-10-15T16:18:05.505Z,7.93
2022-10-15T16:20:35.873Z,13.52
2022-10-15T16:23:04.518Z,11.68
2022-10-15T16:25:33.955Z,11.27
2022-10-15T16:28:02.436Z,12.02
2022-10-15T16:30:30.774Z,9.32
2022-10-15T16:32:59.467Z,11.10
2022-10-15T16:35:27.634Z,10.63
2022-10-15T16:37:56.330Z,8.95
2022-10-15T16:40:24.512Z,11.15
2022-10-15T16:42:54.169Z,13.25
2022-10-15T16:45:22.724Z,11.90
2022-10-15T16:47:51.005Z,11.43
2022-10-15T16:50:19.421Z,10.45
2022-10-15T16:52:47.762Z,11.68
2022-10-15T16:55:16.863Z,12.73
2022-10-15T16:57:45.394Z,14.48
2022-10-15T17:00:15.486Z,11.73
2022-10-15T17:02:43.915Z,14.52
2022-10-15T17:05:12.398Z,12.82
2022-10-15T17:07:41.421Z,23.35
2022-10-15T17:10:13.889Z,35.80
2022-10-15T17:12:43.327Z,49.78
2022-10-15T17:15:12.315Z,33.13
2022-10-15T17:17:41.918Z,32.25
2022-10-15T17:20:11.199Z,44.45
2022-10-15T17:22:39.649Z,37.90
2022-10-15T17:25:08.273Z,33.75
2022-10-15T17:27:36.708Z,35.72
2022-10-15T17:30:05.758Z,35.80
2022-10-15T17:32:34.310Z,25.25
2022-10-15T17:35:04.626Z,22.08
2022-10-15T17:40:03.200Z,21.10
2022-10-15T17:42:31.611Z,21.67
2022-10-15T17:44:59.902Z,19.50
2022-10-15T17:47:28.699Z,18.00
2022-10-15T17:49:57.250Z,18.05
2022-10-15T17:52:27.077Z,20.05
2022-10-15T17:54:55.463Z,18.05
2022-10-15T17:57:24.139Z,19.85
2022-10-15T17:59:52.473Z,19.40
2022-10-15T18:02:20.842Z,20.92
2022-10-15T18:04:49.171Z,19.77
2022-10-15T18:07:19.947Z,19.67
2022-10-15T18:09:50.079Z,19.27
2022-10-15T18:12:18.568Z,20.70
2022-10-15T18:14:46.999Z,18.42
2022-10-15T18:17:15.453Z,21.17
2022-10-15T18:19:44.144Z,29.33
2022-10-15T18:22:13.038Z,20.95
2022-10-15T18:24:41.219Z,18.95
2022-10-15T18:27:10.976Z,23.40
2022-10-15T18:29:39.929Z,21.98
2022-10-15T18:32:08.964Z,21.08
2022-10-15T18:34:37.094Z,21.85
2022-10-15T18:37:05.506Z,20.05
2022-10-15T18:39:33.877Z,20.42
2022-10-15T18:42:02.185Z,24.80
2022-10-15T18:44:33.399Z,20.35
2022-10-15T18:49:29.945Z,24.50
2022-10-15T18:52:00.421Z,27.75
2022-10-15T18:54:36.521Z,25.95
2022-10-15T18:57:05.138Z,23.88
2022-10-15T18:59:34.809Z,23.15
2022-10-15T19:02:03.270Z,24.73
2022-10-15T19:04:31.411Z,25.55
2022-10-15T19:07:02.409Z,26.38
2022-10-15T19:09:30.576Z,25.08
2022-10-15T19:11:59.420Z,30.73
2022-10-15T19:14:29.259Z,28.92
2022-10-15T19:16:59.031Z,31.65
2022-10-15T19:19:27.482Z,27.67
2022-10-15T19:21:56.561Z,30.98
2022-10-15T19:24:25.150Z,31.05
2022-10-15T19:26:53.709Z,27.83
2022-10-15T19:29:22.166Z,29.15
2022-10-15T19:31:51.023Z,31.60
2022-10-15T19:34:22.721Z,24.98
2022-10-15T19:36:51.697Z,25.52
2022-10-15T19:39:21.294Z,21.40
2022-10-15T19:41:50.543Z,27.60
2022-10-15T19:44:25.278Z,25.75
2022-10-15T19:46:54.493Z,24.80
2022-10-15T19:49:24.589Z,22.45
2022-10-15T19:51:52.997Z,21.17
2022-10-15T19:54:21.286Z,22.60
2022-10-15T19:56:49.691Z,23.80
2022-10-15T19:59:18.297Z,24.73
2022-10-15T20:01:46.599Z,20.73
2022-10-15T20:04:14.809Z,20.60
2022-10-15T20:06:45.029Z,21.55
2022-10-15T20:09:13.379Z,22.77
2022-10-15T20:11:41.919Z,22.33
2022-10-15T20:14:10.267Z,24.92
2022-10-15T20:16:39.171Z,24.30
2022-10-15T20:19:07.556Z,23.67
2022-10-15T20:21:35.871Z,20.63
2022-10-15T20:24:05.749Z,18.65
2022-10-15T20:26:34.533Z,21.88
2022-10-15T20:29:03.161Z,21.88
2022-10-15T20:31:34.994Z,24.08
2022-10-15T20:34:04.126Z,27.20
2022-10-15T20:36:32.933Z,25.63
2022-10-15T20:39:01.747Z,21.35
2022-10-15T20:41:31.468Z,24.42
2022-10-15T20:44:00.000Z,29.65
2022-10-15T20:46:31.480Z,25.35
2022-10-15T20:49:06.054Z,23.00
2022-10-15T20:51:38.480Z,25.48
2022-10-15T20:54:06.788Z,30.75
2022-10-15T20:56:36.678Z,27.67
2022-10-15T20:59:05.459Z,26.20
2022-10-15T21:01:34.540Z,26.13
2022-10-15T21:04:03.137Z,24.13
2022-10-15T21:06:31.616Z,26.70
2022-10-15T21:08:59.819Z,23.55
2022-10-15T21:11:28.396Z,24.38
2022-10-15T21:13:58.024Z,25.15
2022-10-15T21:16:28.572Z,24.83
2022-10-15T21:18:56.873Z,24.90
2022-10-15T21:21:25.333Z,29.75
2022-10-15T21:23:53.477Z,25.63
2022-10-15T21:26:22.056Z,32.42
2022-10-15T21:28:55.349Z,27.95
2022-10-15T21:31:25.821Z,27.35
2022-10-15T21:33:54.724Z,30.17
2022-10-15T21:36:26.131Z,29.35
2022-10-15T21:38:55.089Z,31.80
2022-10-15T21:41:23.613Z,28.70
2022-10-15T21:43:51.790Z,27.30
2022-10-15T21:46:20.230Z,28.75
2022-10-15T21:48:49.724Z,26.40
2022-10-15T21:51:19.733Z,29.55
2022-10-15T21:53:48.652Z,31.33
2022-10-15T21:56:17.065Z,31.08
2022-10-15T21:58:45.352Z,29.02
2022-10-15T22:01:17.125Z,31.92
2022-10-15T22:03:49.628Z,27.45
2022-10-15T22:06:18.585Z,26.95
2022-10-15T22:08:47.017Z,26.48
2022-10-15T22:11:17.390Z,25.70
2022-10-15T22:13:46.996Z,24.38
2022-10-15T22:16:15.863Z,26.58
2022-10-15T22:18:44.266Z,26.35
2022-10-15T22:21:16.278Z,22.80
2022-10-15T22:23:45.064Z,22.15
2022-10-15T22:26:13.667Z,21.85
2022-10-15T22:28:42.285Z,22.77
2022-10-15T22:31:13.040Z,22.60
2022-10-15T22:33:41.948Z,20.70
2022-10-15T22:36:16.433Z,19.73
2022-10-15T22:38:46.352Z,19.23
2022-10-15T22:41:15.418Z,19.33
2022-10-15T22:43:43.554Z,19.60
2022-10-15T22:46:12.106Z,18.48
2022-10-15T22:48:41.674Z,21.13
2022-10-15T22:51:11.759Z,18.58
2022-10-15T22:53:41.578Z,17.20
2022-10-15T22:56:12.635Z,19.80
2022-10-15T22:58:40.802Z,18.63
2022-10-15T23:01:11.100Z,19.50
2022-10-15T23:03:39.822Z,19.02
2022-10-15T23:06:08.661Z,18.90
2022-10-15T23:08:37.238Z,17.35
2022-10-15T23:11:11.967Z,20.15
2022-10-15T23:13:40.897Z,17.75
2022-10-15T23:16:12.057Z,16.30
2022-10-15T23:18:40.982Z,19.20
2022-10-15T23:21:13.849Z,18.77
2022-10-15T23:23:42.009Z,15.43
2022-10-15T23:26:12.516Z,15.57
2022-10-15T23:28:40.684Z,17.27
2022-10-15T23:31:12.603Z,16.38
2022-10-15T23:33:40.594Z,14.23
2022-10-15T23:36:09.150Z,16.02
2022-10-15T23:38:37.344Z,17.13
2022-10-15T23:41:07.295Z,16.10
2022-10-15T23:43:36.708Z,17.75
2022-10-15T23:46:05.021Z,16.40
2022-10-15T23:48:33.145Z,17.90
2022-10-15T23:51:03.517Z,15.48
2022-10-15T23:53:34.007Z,14.13
2022-10-15T23:56:03.082Z,17.17
2022-10-15T23:58:32.287Z,16.70
